Apache, Oklahoma
Current Conditions -  °F | °C
As of 1:58 PM on Saturday 25 Oct 2014 (Local Time) from KFSI Reporting Station
Clear Clear  
Wind Chill: 88°   Ceiling: Unl
Heat Index: 88°   Visibility: 10mi
Dew Point: 56°   Wind: 8mph
Humidity: 33%   Direction: 250°WSW
Pressure: 30.06"   Gusts: NA
Location:  34.89°N, 98.37°W
Report Text: KFSI 251858Z AUTO 25007KT 10SM CLR 31/13 A3006 RMK AO2 SLP171 T03130131
Loading
Personal Weather Stations






























Interactive Weather Map
Tropical Storm Tracking
New forecast layout! Learn more

10-Day Weather Forecast

Advertisements
Track Severe Weather on mobile